Terminal Aerodrome Forecast
Issued by NWS Chicago, IL

Home | Current Version | Previous Version | Text Only | Print | Product List | Glossary On
Versions: 1 2 3 4 5 6 7 8 9 10 11 12 13 14 15 16 17 18 19 20 21 22 23 24
630
FTUS43 KLOT 282323
TAFRFD
TAF
KRFD 282323Z 2900/2924 19014G22KT 5SM -TSRA BKN040CB BKN250
      TEMPO 2900/2902 25025G35KT 1SM +TSRA OVC030CB
     FM290200 19008KT P6SM SCT250
     FM291500 26014G22KT P6SM FEW050=

USA.gov is the U.S. government's official web portal to all federal, state and local government web resources and services.